Time;durP1;ratioP1;P1;durP2;ratioP2;P2;SDS_P1;SDS_P2;PMS_P1;PMS_P2;Temp;Humidity;BMP_temperature;BMP_pressure;BME280_temperature;BME280_humidity;BME280_pressure;Samples;Min_cycle;Max_cycle;Signal;HPM_P1;HPM_P2
2022/07/22 00:00:49;;;;;;;6.88;3.42;;;;;;;;;;5054237;28;20053;-83
2022/07/22 00:03:35;;;;;;;6.68;3.67;;;;;;;;;;5055464;28;20045;-81
2022/07/22 00:06:20;;;;;;;5.45;3.15;;;;;;;;;;5055666;28;20057;-84
2022/07/22 00:09:06;;;;;;;10.73;3.20;;;;;;;;;;5055533;28;20045;-82
2022/07/22 00:11:51;;;;;;;11.65;3.63;;;;;;;;;;5047046;28;20049;-84
2022/07/22 00:14:37;;;;;;;8.45;3.50;;;;;;;;;;5055228;28;20053;-85
2022/07/22 00:17:22;;;;;;;8.73;3.40;;;;;;;;;;5061602;28;20049;-84
2022/07/22 00:20:08;;;;;;;15.10;3.30;;;;;;;;;;5055360;28;20422;-83
2022/07/22 00:22:54;;;;;;;5.22;3.05;;;;;;;;;;5055125;28;20045;-83
2022/07/22 00:25:39;;;;;;;8.93;3.28;;;;;;;;;;5054766;28;20041;-84
2022/07/22 00:28:25;;;;;;;7.70;3.63;;;;;;;;;;5032615;28;20044;-84
2022/07/22 00:31:10;;;;;;;7.63;3.72;;;;;;;;;;5039798;28;20394;-84
2022/07/22 00:33:55;;;;;;;8.70;3.30;;;;;;;;;;5055087;28;20045;-83
2022/07/22 00:36:40;;;;;;;5.82;3.75;;;;;;;;;;5046416;28;20041;-82
2022/07/22 00:39:26;;;;;;;4.90;3.25;;;;;;;;;;5044377;28;20509;-84
2022/07/22 00:42:11;;;;;;;8.90;3.38;;;;;;;;;;5052546;28;20048;-82
2022/07/22 00:44:56;;;;;;;8.88;3.45;;;;;;;;;;5037595;28;20045;-83
2022/07/22 00:47:42;;;;;;;5.53;3.20;;;;;;;;;;5038517;28;20057;-83
2022/07/22 00:50:28;;;;;;;6.15;3.53;;;;;;;;;;5044344;28;20045;-81
2022/07/22 00:53:13;;;;;;;5.88;3.25;;;;;;;;;;5060013;28;20048;-81
2022/07/22 00:56:00;;;;;;;7.55;3.22;;;;;;;;;;5046370;28;20049;-82
2022/07/22 00:58:48;;;;;;;9.38;3.25;;;;;;;;;;5046262;28;20487;-83
2022/07/22 01:01:34;;;;;;;10.00;3.33;;;;;;;;;;5054985;28;20045;-81
2022/07/22 01:04:20;;;;;;;8.60;3.63;;;;;;;;;;5054274;28;20045;-80
2022/07/22 01:07:05;;;;;;;7.65;3.22;;;;;;;;;;5054868;28;20049;-81
2022/07/22 01:09:50;;;;;;;11.35;3.90;;;;;;;;;;5046931;28;20056;-81
2022/07/22 01:12:35;;;;;;;6.75;3.17;;;;;;;;;;5038931;28;20474;-83
2022/07/22 01:15:21;;;;;;;6.63;3.20;;;;;;;;;;5045907;28;20048;-81
2022/07/22 01:18:06;;;;;;;5.93;3.33;;;;;;;;;;5054294;28;20053;-80
2022/07/22 01:20:52;;;;;;;4.80;3.13;;;;;;;;;;5045791;28;20053;-82
2022/07/22 01:23:38;;;;;;;5.82;3.30;;;;;;;;;;5054428;28;20037;-83
2022/07/22 01:26:24;;;;;;;10.95;3.55;;;;;;;;;;5045737;28;20041;-83
2022/07/22 01:29:10;;;;;;;8.35;3.30;;;;;;;;;;5054264;28;20041;-83
2022/07/22 01:31:56;;;;;;;6.18;3.42;;;;;;;;;;5045628;28;20386;-82
2022/07/22 01:34:43;;;;;;;5.57;3.03;;;;;;;;;;5060720;28;20049;-81
2022/07/22 01:37:29;;;;;;;5.97;3.33;;;;;;;;;;5046210;28;20041;-82
2022/07/22 01:40:15;;;;;;;7.75;3.33;;;;;;;;;;5045480;28;20390;-82
2022/07/22 01:43:01;;;;;;;7.82;3.63;;;;;;;;;;5053417;28;20475;-82
2022/07/22 01:45:50;;;;;;;10.80;3.42;;;;;;;;;;5053803;28;20056;-82
2022/07/22 01:48:36;;;;;;;5.90;3.72;;;;;;;;;;5045608;28;20037;-84
2022/07/22 01:51:21;;;;;;;9.10;3.83;;;;;;;;;;5045172;28;20044;-84
2022/07/22 01:54:07;;;;;;;6.75;3.58;;;;;;;;;;5045562;28;20440;-83
2022/07/22 01:56:52;;;;;;;7.68;3.90;;;;;;;;;;5053549;28;20049;-82
2022/07/22 01:59:38;;;;;;;14.70;6.70;;;;;;;;;;5045348;28;20387;-84
2022/07/22 02:02:24;;;;;;;5.95;3.85;;;;;;;;;;5045555;28;20041;-81
2022/07/22 02:05:09;;;;;;;8.10;3.92;;;;;;;;;;5045601;28;20483;-82
2022/07/22 02:08:07;;;;;;;8.13;4.00;;;;;;;;;;5039309;28;20433;-82
2022/07/22 02:11:13;;;;;;;6.93;3.60;;;;;;;;;;5059903;28;20033;-82
2022/07/22 02:14:17;;;;;;;;;;;;;;;;;;5045640;28;20045;-83
2022/07/22 02:17:03;;;;;;;6.10;3.58;;;;;;;;;;5053697;28;20346;-82
2022/07/22 02:19:50;;;;;;;6.68;3.75;;;;;;;;;;5045349;28;20472;-84
2022/07/22 02:22:37;;;;;;;7.60;3.75;;;;;;;;;;5053558;28;20390;-83
2022/07/22 02:25:22;;;;;;;11.43;3.92;;;;;;;;;;5048023;28;20049;-84
2022/07/22 02:28:08;;;;;;;6.07;3.70;;;;;;;;;;5049277;28;20040;-83
2022/07/22 02:30:54;;;;;;;6.22;3.50;;;;;;;;;;5049052;28;20044;-84
2022/07/22 02:33:40;;;;;;;10.45;4.25;;;;;;;;;;5049145;28;20044;-84
2022/07/22 02:36:26;;;;;;;6.70;3.63;;;;;;;;;;5048822;28;20041;-81
2022/07/22 02:39:11;;;;;;;7.28;3.80;;;;;;;;;;5057195;28;20391;-82
2022/07/22 02:41:57;;;;;;;5.00;3.70;;;;;;;;;;5048254;28;20041;-82
2022/07/22 02:44:43;;;;;;;5.97;3.67;;;;;;;;;;5056797;28;20056;-84
2022/07/22 02:47:28;;;;;;;11.05;4.20;;;;;;;;;;5048638;28;20049;-84
2022/07/22 02:50:14;;;;;;;6.78;3.70;;;;;;;;;;5048490;28;20045;-82
2022/07/22 02:52:59;;;;;;;5.72;3.58;;;;;;;;;;5048821;28;20036;-82
2022/07/22 02:55:48;;;;;;;6.88;3.80;;;;;;;;;;5048410;28;20037;-84
2022/07/22 02:58:33;;;;;;;6.78;3.40;;;;;;;;;;5063419;28;20041;-84
2022/07/22 03:01:19;;;;;;;7.85;3.80;;;;;;;;;;5048371;28;20045;-82
2022/07/22 03:04:10;;;;;;;6.82;3.90;;;;;;;;;;5048192;28;20394;-83
2022/07/22 03:06:57;;;;;;;9.65;3.90;;;;;;;;;;5048308;28;20045;-84
2022/07/22 03:09:43;;;;;;;5.28;3.70;;;;;;;;;;5048101;28;20482;-83
2022/07/22 03:12:28;;;;;;;7.45;3.85;;;;;;;;;;5048492;28;20045;-83
2022/07/22 03:15:13;;;;;;;8.93;4.10;;;;;;;;;;5048125;28;20040;-82
2022/07/22 03:17:59;;;;;;;6.10;3.75;;;;;;;;;;5048457;28;20049;-85
2022/07/22 03:20:45;;;;;;;7.47;3.92;;;;;;;;;;5048184;28;20417;-83
2022/07/22 03:23:31;;;;;;;13.93;3.40;;;;;;;;;;5048324;28;20044;-84
2022/07/22 03:26:17;;;;;;;7.82;3.28;;;;;;;;;;5048055;28;20049;-82
2022/07/22 03:29:02;;;;;;;6.93;4.03;;;;;;;;;;5048108;28;20044;-81
2022/07/22 03:31:48;;;;;;;10.98;3.80;;;;;;;;;;5047766;28;20044;-83
2022/07/22 03:34:37;;;;;;;8.85;3.33;;;;;;;;;;5047974;28;20048;-82
2022/07/22 03:37:25;;;;;;;11.77;3.83;;;;;;;;;;5047913;28;20041;-81
2022/07/22 03:40:11;;;;;;;10.48;3.92;;;;;;;;;;5056052;28;20041;-83
2022/07/22 03:42:58;;;;;;;11.15;3.65;;;;;;;;;;5046008;28;20049;-82
2022/07/22 03:45:44;;;;;;;7.30;3.63;;;;;;;;;;5047565;28;20037;-80
2022/07/22 03:48:31;;;;;;;10.15;3.88;;;;;;;;;;5047860;28;20045;-81
2022/07/22 03:51:16;;;;;;;9.18;4.13;;;;;;;;;;5047407;28;20045;-82
2022/07/22 03:54:03;;;;;;;7.80;3.90;;;;;;;;;;5049637;28;20510;-84
2022/07/22 03:56:48;;;;;;;10.82;3.70;;;;;;;;;;5046255;28;20045;-83
2022/07/22 03:59:34;;;;;;;10.02;4.00;;;;;;;;;;5047607;28;20056;-82
2022/07/22 04:02:21;;;;;;;6.13;3.90;;;;;;;;;;5047367;28;20041;-82
2022/07/22 04:05:07;;;;;;;9.35;3.60;;;;;;;;;;5047282;28;20037;-82
2022/07/22 04:07:53;;;;;;;14.52;3.78;;;;;;;;;;5047125;28;20048;-82
2022/07/22 04:10:40;;;;;;;11.23;3.92;;;;;;;;;;5047121;28;20049;-83
2022/07/22 04:13:26;;;;;;;9.05;3.47;;;;;;;;;;5040493;28;20068;-82
2022/07/22 04:16:15;;;;;;;5.93;3.60;;;;;;;;;;5047271;28;20049;-82
2022/07/22 04:19:10;;;;;;;8.68;4.07;;;;;;;;;;5046911;28;20045;-81
2022/07/22 04:22:14;;;;;;;9.25;3.63;;;;;;;;;;5046907;28;20045;-83
2022/07/22 04:25:00;;;;;;;8.20;4.55;;;;;;;;;;5046893;28;20045;-86
2022/07/22 04:27:47;;;;;;;9.95;4.70;;;;;;;;;;5048238;28;20052;-85
2022/07/22 04:30:32;;;;;;;13.93;4.30;;;;;;;;;;5046691;28;20045;-85
2022/07/22 04:33:19;;;;;;;13.95;5.10;;;;;;;;;;5040968;28;20044;-83
2022/07/22 04:36:05;;;;;;;9.02;4.05;;;;;;;;;;5046572;28;20045;-82
2022/07/22 04:38:51;;;;;;;10.25;4.00;;;;;;;;;;5046873;28;20045;-82
2022/07/22 04:41:35;;;;;;;11.55;4.47;;;;;;;;;;5046279;28;20390;-81
2022/07/22 04:44:21;;;;;;;7.97;4.63;;;;;;;;;;5026903;28;20071;-81
2022/07/22 04:47:07;;;;;;;12.82;4.63;;;;;;;;;;5031796;28;20048;-81
2022/07/22 04:49:52;;;;;;;16.45;5.05;;;;;;;;;;5046786;28;20048;-81
2022/07/22 04:52:38;;;;;;;14.43;4.85;;;;;;;;;;5046368;28;20045;-81
2022/07/22 04:55:24;;;;;;;7.95;3.88;;;;;;;;;;5055979;28;20041;-83
2022/07/22 04:58:10;;;;;;;14.32;4.05;;;;;;;;;;5047808;28;20387;-81
2022/07/22 05:00:56;;;;;;;14.40;3.90;;;;;;;;;;5065989;28;20049;-81
2022/07/22 05:03:41;;;;;;;8.45;4.30;;;;;;;;;;5045719;28;20049;-79
2022/07/22 05:06:27;;;;;;;12.02;3.97;;;;;;;;;;5046028;28;20414;-80
2022/07/22 05:09:14;;;;;;;20.48;4.25;;;;;;;;;;5045684;28;20041;-80
2022/07/22 05:11:59;;;;;;;8.82;3.50;;;;;;;;;;5054140;28;20041;-81
2022/07/22 05:14:45;;;;;;;40.47;5.28;;;;;;;;;;5045844;28;20144;-82
2022/07/22 05:17:30;;;;;;;11.93;3.90;;;;;;;;;;5045722;28;20048;-79
2022/07/22 05:20:24;;;;;;;7.75;4.20;;;;;;;;;;5045745;28;20386;-80
2022/07/22 05:23:10;;;;;;;11.75;4.47;;;;;;;;;;5045743;28;20037;-78
2022/07/22 05:25:56;;;;;;;9.57;3.58;;;;;;;;;;5045289;28;20045;-78
2022/07/22 05:28:42;;;;;;;11.02;3.75;;;;;;;;;;5045740;28;20044;-78
2022/07/22 05:31:27;;;;;;;7.53;3.55;;;;;;;;;;5045522;28;20422;-78
2022/07/22 05:34:13;;;;;;;20.10;4.40;;;;;;;;;;5045684;28;20053;-78
2022/07/22 05:37:05;;;;;;;14.77;3.80;;;;;;;;;;5053857;28;20036;-78
2022/07/22 05:39:50;;;;;;;10.75;4.32;;;;;;;;;;5046023;28;20041;-75
2022/07/22 05:42:35;;;;;;;7.55;3.92;;;;;;;;;;5043220;28;20045;-78
2022/07/22 05:45:20;;;;;;;10.13;3.95;;;;;;;;;;5053628;28;20487;-78
2022/07/22 05:48:06;;;;;;;10.82;3.80;;;;;;;;;;5040192;28;20041;-78
2022/07/22 05:50:52;;;;;;;12.52;4.28;;;;;;;;;;5045653;28;20037;-78
2022/07/22 05:53:37;;;;;;;7.55;3.47;;;;;;;;;;5046230;28;20049;-77
2022/07/22 05:56:23;;;;;;;7.45;3.72;;;;;;;;;;5046605;28;20394;-78
2022/07/22 05:59:09;;;;;;;6.85;3.53;;;;;;;;;;5045329;28;20498;-78
2022/07/22 06:01:55;;;;;;;7.13;3.38;;;;;;;;;;5033466;28;20044;-75
2022/07/22 06:05:03;;;;;;;8.25;3.90;;;;;;;;;;5049350;28;20045;-75
2022/07/22 06:07:49;;;;;;;13.65;3.97;;;;;;;;;;5048465;28;20045;-76
2022/07/22 06:10:44;;;;;;;7.28;3.00;;;;;;;;;;5047683;28;20045;-75
2022/07/22 06:13:30;;;;;;;7.03;3.35;;;;;;;;;;5038594;28;20053;-76
2022/07/22 06:16:15;;;;;;;11.45;3.70;;;;;;;;;;5052869;28;20045;-74
2022/07/22 06:19:02;;;;;;;7.35;3.22;;;;;;;;;;5044932;28;20045;-75
2022/07/22 06:21:48;;;;;;;11.40;3.80;;;;;;;;;;5044555;28;20037;-75
2022/07/22 06:24:33;;;;;;;7.97;3.38;;;;;;;;;;5053446;28;20049;-75
2022/07/22 06:27:19;;;;;;;7.90;3.28;;;;;;;;;;5044785;28;20041;-75
2022/07/22 06:30:06;;;;;;;11.65;3.42;;;;;;;;;;5043855;28;20053;-75
2022/07/22 06:32:52;;;;;;;9.20;3.20;;;;;;;;;;5044853;28;20041;-77
2022/07/22 06:35:40;;;;;;;10.48;3.95;;;;;;;;;;5044539;28;20053;-78
2022/07/22 06:38:25;;;;;;;11.82;4.10;;;;;;;;;;5038549;28;20048;-77
2022/07/22 06:41:31;;;;;;;10.93;3.38;;;;;;;;;;5050236;28;20045;-78
2022/07/22 06:44:22;;;;;;;8.40;3.70;;;;;;;;;;5053292;28;20037;-77
2022/07/22 06:47:29;;;;;;;8.98;3.90;;;;;;;;;;5045226;28;20041;-75
2022/07/22 06:50:14;;;;;;;8.55;3.90;;;;;;;;;;5044437;28;20041;-76
2022/07/22 06:53:00;;;;;;;12.45;3.50;;;;;;;;;;5044653;28;20053;-76
2022/07/22 06:55:46;;;;;;;9.10;3.42;;;;;;;;;;5044651;28;20037;-75
2022/07/22 06:58:33;;;;;;;15.18;3.50;;;;;;;;;;5043983;28;20040;-76
2022/07/22 07:01:19;;;;;;;17.15;3.70;;;;;;;;;;5044721;28;20053;-75
2022/07/22 07:04:10;;;;;;;7.35;3.65;;;;;;;;;;5044360;28;20033;-76
2022/07/22 07:06:56;;;;;;;65.43;53.85;;;;;;;;;;5044444;28;20462;-77
2022/07/22 07:10:02;;;;;;;34.80;19.90;;;;;;;;;;5049748;28;20048;-76
2022/07/22 07:13:01;;;;;;;8.77;4.50;;;;;;;;;;5047598;28;20486;-76
2022/07/22 07:16:00;;;;;;;173.77;137.65;;;;;;;;;;5048043;28;20486;-77
2022/07/22 07:18:45;;;;;;;31.23;21.98;;;;;;;;;;5041846;28;20057;-77
2022/07/22 07:21:31;;;;;;;18.35;11.95;;;;;;;;;;5048450;28;20041;-76
2022/07/22 07:24:16;;;;;;;7.20;3.70;;;;;;;;;;5048018;28;20049;-76
2022/07/22 07:27:02;;;;;;;9.90;3.58;;;;;;;;;;5047504;28;20048;-76
2022/07/22 07:29:47;;;;;;;8.50;4.50;;;;;;;;;;5047928;28;20045;-76
2022/07/22 07:32:33;;;;;;;10.88;3.78;;;;;;;;;;5047480;28;20044;-75
2022/07/22 07:35:19;;;;;;;9.30;3.50;;;;;;;;;;5047649;28;20041;-75
2022/07/22 07:38:05;;;;;;;11.13;3.30;;;;;;;;;;5047684;28;20045;-77
2022/07/22 07:40:51;;;;;;;6.32;3.10;;;;;;;;;;5047606;28;20045;-75
2022/07/22 07:43:36;;;;;;;14.70;3.50;;;;;;;;;;5041870;28;20049;-76
2022/07/22 07:46:22;;;;;;;7.78;3.42;;;;;;;;;;5047178;28;20495;-76
2022/07/22 07:49:08;;;;;;;10.20;3.70;;;;;;;;;;5047447;28;20057;-76
2022/07/22 07:51:54;;;;;;;10.63;3.67;;;;;;;;;;5047667;28;20045;-76
2022/07/22 07:54:40;;;;;;;8.70;3.22;;;;;;;;;;5047053;28;20049;-76
2022/07/22 07:57:26;;;;;;;7.65;3.20;;;;;;;;;;5047440;28;20037;-75
2022/07/22 08:00:12;;;;;;;7.97;4.53;;;;;;;;;;5047306;28;20045;-76
2022/07/22 08:03:04;;;;;;;9.40;3.75;;;;;;;;;;5047030;28;20048;-77
2022/07/22 08:05:51;;;;;;;9.68;3.42;;;;;;;;;;5047344;28;20045;-74
2022/07/22 08:08:41;;;;;;;7.57;2.95;;;;;;;;;;5046767;28;20048;-76
2022/07/22 08:11:36;;;;;;;6.15;3.13;;;;;;;;;;5047088;28;20037;-76
2022/07/22 08:14:48;;;;;;;9.00;3.88;;;;;;;;;;5047242;28;20049;-77
2022/07/22 08:17:43;;;;;;;9.07;3.58;;;;;;;;;;5055167;28;20041;-76
2022/07/22 08:20:29;;;;;;;12.65;2.90;;;;;;;;;;5047005;28;20045;-76
2022/07/22 08:23:15;;;;;;;12.02;3.45;;;;;;;;;;5045397;28;20044;-76
2022/07/22 08:26:03;;;;;;;4.55;3.00;;;;;;;;;;5032825;28;20049;-75
2022/07/22 08:28:49;;;;;;;6.95;3.25;;;;;;;;;;5055227;28;20475;-76
2022/07/22 08:31:34;;;;;;;10.90;3.13;;;;;;;;;;5046294;28;20394;-75
2022/07/22 08:34:23;;;;;;;7.22;3.58;;;;;;;;;;5046735;28;20044;-74
2022/07/22 08:37:10;;;;;;;11.30;3.08;;;;;;;;;;5046041;28;20398;-76
2022/07/22 08:39:55;;;;;;;8.27;3.00;;;;;;;;;;5046654;28;20490;-76
2022/07/22 08:42:43;;;;;;;7.30;3.25;;;;;;;;;;5045686;28;20045;-76
2022/07/22 08:45:29;;;;;;;6.75;2.80;;;;;;;;;;5045830;28;20045;-78
2022/07/22 08:48:15;;;;;;;6.10;2.97;;;;;;;;;;5047060;28;20041;-77
2022/07/22 08:51:38;;;;;;;12.20;3.88;;;;;;;;;;5060932;28;20033;-75
2022/07/22 08:54:36;;;;;;;5.40;2.75;;;;;;;;;;5046070;28;20041;-76
2022/07/22 08:57:23;;;;;;;7.82;3.00;;;;;;;;;;5046025;28;20041;-74
2022/07/22 09:00:11;;;;;;;13.43;3.20;;;;;;;;;;5046520;28;20060;-76
2022/07/22 09:02:56;;;;;;;11.70;3.42;;;;;;;;;;5054655;28;20401;-76
2022/07/22 09:05:42;;;;;;;8.15;3.10;;;;;;;;;;5053769;28;20045;-76
2022/07/22 09:08:28;;;;;;;10.25;2.95;;;;;;;;;;5045721;28;20045;-76
2022/07/22 09:11:31;;;;;;;11.63;3.15;;;;;;;;;;5046078;28;20036;-76
2022/07/22 09:14:54;;;;;;;8.98;3.10;;;;;;;;;;5047304;28;20041;-76
2022/07/22 09:17:54;;;;;;;4.95;3.10;;;;;;;;;;5045766;28;20413;-76
2022/07/22 09:20:59;;;;;;;8.50;2.95;;;;;;;;;;5045038;28;20041;-75
2022/07/22 09:33:44;;;;;;;8.96;3.12;;;;;;;;;;4404523;22;6471147;-77
2022/07/22 09:36:58;;;;;;;9.15;3.67;;;;;;;;;;5071046;28;20696;-77
2022/07/22 09:39:44;;;;;;;8.40;3.17;;;;;;;;;;5062598;28;20044;-75
2022/07/22 09:42:45;;;;;;;7.53;3.58;;;;;;;;;;5062151;28;20049;-76
2022/07/22 09:45:31;;;;;;;7.25;3.53;;;;;;;;;;5062593;28;20053;-76
2022/07/22 09:48:19;;;;;;;7.05;3.45;;;;;;;;;;5062158;28;20497;-76
2022/07/22 09:51:14;;;;;;;14.27;3.70;;;;;;;;;;5070539;28;20040;-76
2022/07/22 09:54:29;;;;;;;6.80;3.47;;;;;;;;;;5076859;28;20044;-78
2022/07/22 09:57:14;;;;;;;6.93;3.40;;;;;;;;;;5062091;28;20044;-77
2022/07/22 10:00:00;;;;;;;9.50;3.60;;;;;;;;;;5062374;28;20044;-77
2022/07/22 10:03:09;;;;;;;10.35;3.70;;;;;;;;;;5069650;28;20041;-77
2022/07/22 10:05:56;;;;;;;12.57;3.60;;;;;;;;;;5076508;28;20045;-76
2022/07/22 10:08:43;;;;;;;10.07;3.33;;;;;;;;;;5061618;28;20033;-76
2022/07/22 10:11:29;;;;;;;10.48;3.55;;;;;;;;;;5062058;28;20044;-78
2022/07/22 10:14:16;;;;;;;12.95;3.85;;;;;;;;;;5062557;28;20036;-75
2022/07/22 10:17:02;;;;;;;7.45;3.25;;;;;;;;;;5061314;28;20045;-76
2022/07/22 10:19:47;;;;;;;7.05;3.17;;;;;;;;;;5061742;28;20393;-76
2022/07/22 10:22:39;;;;;;;11.98;3.60;;;;;;;;;;5061724;28;20045;-76
2022/07/22 10:25:26;;;;;;;7.10;3.58;;;;;;;;;;5047958;28;20481;-76
2022/07/22 10:28:36;;;;;;;10.68;3.53;;;;;;;;;;5061726;28;20048;-77
2022/07/22 10:31:24;;;;;;;7.20;3.40;;;;;;;;;;5069400;28;20037;-77
2022/07/22 10:34:10;;;;;;;6.68;3.38;;;;;;;;;;5078378;28;20049;-77
2022/07/22 10:36:56;;;;;;;15.55;3.58;;;;;;;;;;5085025;28;20049;-76
2022/07/22 10:40:17;;;;;;;8.05;3.97;;;;;;;;;;5069572;28;20049;-76
2022/07/22 10:43:06;;;;;;;8.70;3.20;;;;;;;;;;5065941;28;20056;-75
2022/07/22 10:46:00;;;;;;;8.60;3.50;;;;;;;;;;5055875;28;20041;-75
2022/07/22 10:48:47;;;;;;;8.80;3.22;;;;;;;;;;5063038;28;20049;-77
2022/07/22 10:51:32;;;;;;;8.77;3.50;;;;;;;;;;5062529;28;20041;-76
2022/07/22 10:54:18;;;;;;;15.15;3.63;;;;;;;;;;5056189;28;20052;-76
2022/07/22 10:57:04;;;;;;;12.32;3.53;;;;;;;;;;5056899;28;20045;-77
2022/07/22 10:59:55;;;;;;;16.10;3.47;;;;;;;;;;5062738;28;20482;-80
2022/07/22 11:02:41;;;;;;;8.50;3.25;;;;;;;;;;5062732;28;20037;-77
2022/07/22 11:05:30;;;;;;;14.05;3.70;;;;;;;;;;5055964;28;20394;-75
2022/07/22 11:08:15;;;;;;;14.50;3.55;;;;;;;;;;5055795;28;20053;-75
2022/07/22 11:11:01;;;;;;;7.95;3.67;;;;;;;;;;5062867;28;20033;-77
2022/07/22 11:13:46;;;;;;;11.82;3.63;;;;;;;;;;5055268;28;20045;-77
2022/07/22 11:16:32;;;;;;;9.50;3.60;;;;;;;;;;5055732;28;20045;-78
2022/07/22 11:19:23;;;;;;;7.90;3.30;;;;;;;;;;5055740;28;20045;-77
2022/07/22 11:22:10;;;;;;;11.05;3.70;;;;;;;;;;5061713;28;20056;-75
2022/07/22 11:24:56;;;;;;;9.20;3.42;;;;;;;;;;5055946;28;20049;-76
2022/07/22 11:27:51;;;;;;;6.28;3.15;;;;;;;;;;5055316;28;20385;-76
2022/07/22 11:30:35;;;;;;;15.48;3.92;;;;;;;;;;5040701;28;20041;-76
2022/07/22 11:33:21;;;;;;;10.70;3.45;;;;;;;;;;5062189;28;20045;-75
2022/07/22 11:36:11;;;;;;;9.02;3.47;;;;;;;;;;5055109;28;20048;-76
2022/07/22 11:38:56;;;;;;;16.08;3.40;;;;;;;;;;5055789;28;20037;-76
2022/07/22 11:41:42;;;;;;;8.45;3.60;;;;;;;;;;5047672;28;20045;-78
2022/07/22 11:44:30;;;;;;;5.53;3.35;;;;;;;;;;5055715;28;20041;-77
2022/07/22 11:47:15;;;;;;;11.18;3.75;;;;;;;;;;5055165;28;20045;-77
2022/07/22 11:50:01;;;;;;;11.68;3.42;;;;;;;;;;5061967;28;20497;-77
2022/07/22 11:52:53;;;;;;;8.45;3.30;;;;;;;;;;5047501;28;20041;-77
2022/07/22 11:55:38;;;;;;;8.52;3.30;;;;;;;;;;5054780;28;20045;-77
2022/07/22 11:58:56;;;;;;;5.53;2.97;;;;;;;;;;5056665;28;20053;-77
2022/07/22 12:01:42;;;;;;;9.25;3.47;;;;;;;;;;5052610;28;20041;-77
2022/07/22 12:04:28;;;;;;;8.18;3.47;;;;;;;;;;5056298;28;20044;-78
2022/07/22 12:07:15;;;;;;;6.68;2.85;;;;;;;;;;5055443;28;20044;-79
2022/07/22 12:10:02;;;;;;;9.43;3.20;;;;;;;;;;5040645;28;20497;-77
2022/07/22 12:12:47;;;;;;;6.28;3.28;;;;;;;;;;5054551;28;20045;-77
2022/07/22 12:15:33;;;;;;;13.30;3.28;;;;;;;;;;5039754;28;20041;-77
2022/07/22 12:18:21;;;;;;;12.27;3.55;;;;;;;;;;5060764;28;20040;-78
2022/07/22 12:21:07;;;;;;;18.63;3.05;;;;;;;;;;5061217;28;20049;-78
2022/07/22 12:24:04;;;;;;;10.05;3.38;;;;;;;;;;5054612;28;20044;-78
2022/07/22 12:26:49;;;;;;;8.85;3.45;;;;;;;;;;5054441;28;20057;-77
2022/07/22 12:29:35;;;;;;;7.78;3.50;;;;;;;;;;5054306;28;20041;-77
2022/07/22 12:32:23;;;;;;;8.13;2.95;;;;;;;;;;5060614;28;20045;-77
2022/07/22 12:35:08;;;;;;;10.68;3.15;;;;;;;;;;5054364;28;20045;-79
2022/07/22 12:37:54;;;;;;;11.32;3.33;;;;;;;;;;5054546;28;20045;-77
2022/07/22 12:40:39;;;;;;;6.68;3.00;;;;;;;;;;5053827;28;20037;-77
2022/07/22 12:43:26;;;;;;;12.50;3.22;;;;;;;;;;5053826;28;20037;-78
2022/07/22 12:46:11;;;;;;;9.73;3.35;;;;;;;;;;5060391;28;20053;-79
2022/07/22 12:49:00;;;;;;;11.38;3.17;;;;;;;;;;5054573;28;20398;-78
2022/07/22 12:52:11;;;;;;;7.57;3.38;;;;;;;;;;5060963;28;20049;-78
2022/07/22 12:54:57;;;;;;;5.25;3.15;;;;;;;;;;5053846;28;20482;-77
2022/07/22 12:57:42;;;;;;;6.95;2.85;;;;;;;;;;5073128;28;20044;-78
2022/07/22 13:00:32;;;;;;;6.18;2.95;;;;;;;;;;5061704;28;20037;-78
2022/07/22 13:03:21;;;;;;;7.07;3.20;;;;;;;;;;5054249;28;20041;-78
2022/07/22 13:06:06;;;;;;;8.18;3.00;;;;;;;;;;5053600;28;20041;-75
2022/07/22 13:08:52;;;;;;;6.88;3.00;;;;;;;;;;5053478;28;20497;-75
2022/07/22 13:11:43;;;;;;;8.07;3.22;;;;;;;;;;5053638;28;20049;-77
2022/07/22 13:14:28;;;;;;;8.73;3.42;;;;;;;;;;5059909;28;20044;-77
2022/07/22 13:17:15;;;;;;;9.48;3.28;;;;;;;;;;5053720;28;20049;-77
2022/07/22 13:20:01;;;;;;;4.95;2.80;;;;;;;;;;5053622;28;20057;-77
2022/07/22 13:22:48;;;;;;;8.57;3.30;;;;;;;;;;5059574;28;20466;-77
2022/07/22 13:25:34;;;;;;;9.82;3.22;;;;;;;;;;5060252;28;20053;-77
2022/07/22 13:28:20;;;;;;;6.82;2.78;;;;;;;;;;5053158;28;20044;-77
2022/07/22 13:31:05;;;;;;;9.25;2.80;;;;;;;;;;5053457;28;20045;-76
2022/07/22 13:33:51;;;;;;;7.53;2.70;;;;;;;;;;5053400;28;20049;-76
2022/07/22 13:36:37;;;;;;;7.18;2.80;;;;;;;;;;5059575;28;20044;-76
2022/07/22 13:39:23;;;;;;;6.82;3.05;;;;;;;;;;5059972;28;20045;-76
2022/07/22 13:42:08;;;;;;;13.10;2.63;;;;;;;;;;5052936;28;20497;-77
2022/07/22 13:44:54;;;;;;;6.93;2.65;;;;;;;;;;5053129;28;20045;-76
2022/07/22 13:47:41;;;;;;;6.47;2.70;;;;;;;;;;5053750;28;20152;-76
2022/07/22 13:50:27;;;;;;;9.18;2.85;;;;;;;;;;5052939;28;20044;-76
2022/07/22 13:53:12;;;;;;;4.53;2.67;;;;;;;;;;5053307;28;20401;-76
2022/07/22 13:55:58;;;;;;;7.38;2.42;;;;;;;;;;5053471;28;20381;-76
2022/07/22 13:58:44;;;;;;;4.75;2.25;;;;;;;;;;5059538;28;20489;-76
2022/07/22 14:01:31;;;;;;;7.20;2.50;;;;;;;;;;5059822;28;20046;-76
2022/07/22 14:04:17;;;;;;;2.88;2.20;;;;;;;;;;5052989;28;20041;-77
2022/07/22 14:07:02;;;;;;;5.63;2.08;;;;;;;;;;5059914;28;20397;-77
2022/07/22 14:09:47;;;;;;;4.10;2.20;;;;;;;;;;5053310;28;20044;-75
2022/07/22 14:12:33;;;;;;;8.13;2.53;;;;;;;;;;5053359;28;20045;-76
2022/07/22 14:15:20;;;;;;;8.35;2.40;;;;;;;;;;5053350;28;20041;-76
2022/07/22 14:18:06;;;;;;;3.90;2.30;;;;;;;;;;5053312;28;20049;-76
2022/07/22 14:20:52;;;;;;;4.13;2.35;;;;;;;;;;5064309;28;20053;-76
2022/07/22 14:23:37;;;;;;;4.32;2.53;;;;;;;;;;5063588;28;20045;-76
2022/07/22 14:26:23;;;;;;;6.75;2.13;;;;;;;;;;5057938;28;20041;-75
2022/07/22 14:29:09;;;;;;;4.00;2.30;;;;;;;;;;5063820;28;20049;-76
2022/07/22 14:31:55;;;;;;;3.95;2.28;;;;;;;;;;5056704;28;20041;-77
2022/07/22 14:34:40;;;;;;;5.90;2.20;;;;;;;;;;5060753;28;20490;-76
2022/07/22 14:37:25;;;;;;;5.22;2.25;;;;;;;;;;5063265;28;20040;-76
2022/07/22 14:40:11;;;;;;;5.75;2.10;;;;;;;;;;5056713;28;20033;-76
2022/07/22 14:42:56;;;;;;;10.35;2.58;;;;;;;;;;5056601;28;20136;-76
2022/07/22 14:45:41;;;;;;;4.38;2.22;;;;;;;;;;5063219;28;20075;-74
2022/07/22 14:48:28;;;;;;;4.25;2.25;;;;;;;;;;5056377;28;20053;-75
2022/07/22 14:51:13;;;;;;;4.00;2.55;;;;;;;;;;5056312;28;20394;-77
2022/07/22 14:53:59;;;;;;;4.65;2.45;;;;;;;;;;5056342;28;20049;-76
2022/07/22 14:56:45;;;;;;;7.72;1.95;;;;;;;;;;5056215;28;20045;-75
2022/07/22 14:59:30;;;;;;;5.45;2.03;;;;;;;;;;5055206;28;20349;-77
2022/07/22 15:02:16;;;;;;;4.88;2.13;;;;;;;;;;5054517;28;20045;-76
2022/07/22 15:05:01;;;;;;;8.07;2.63;;;;;;;;;;5054032;28;20049;-77
2022/07/22 15:07:47;;;;;;;3.85;1.98;;;;;;;;;;5056551;28;20421;-76
2022/07/22 15:10:34;;;;;;;7.32;2.35;;;;;;;;;;5062729;28;20389;-75
2022/07/22 15:13:20;;;;;;;4.55;2.00;;;;;;;;;;5054390;28;20052;-76
2022/07/22 15:16:05;;;;;;;5.35;2.20;;;;;;;;;;5054781;28;20389;-76
2022/07/22 15:18:50;;;;;;;7.70;2.08;;;;;;;;;;5074300;28;20045;-76
2022/07/22 15:21:36;;;;;;;5.60;2.40;;;;;;;;;;5070531;28;20049;-76
2022/07/22 15:24:22;;;;;;;3.67;1.92;;;;;;;;;;5055363;28;20045;-76
2022/07/22 15:27:07;;;;;;;3.58;2.10;;;;;;;;;;5062044;28;20041;-76
2022/07/22 15:29:53;;;;;;;6.78;2.40;;;;;;;;;;5062485;28;20489;-76
2022/07/22 15:32:38;;;;;;;6.25;2.33;;;;;;;;;;5056050;28;20385;-76
2022/07/22 15:35:24;;;;;;;3.45;2.10;;;;;;;;;;5055123;28;20041;-76
2022/07/22 15:38:09;;;;;;;4.35;2.40;;;;;;;;;;5055529;28;20045;-76
2022/07/22 15:40:56;;;;;;;5.47;2.00;;;;;;;;;;5055721;28;20056;-75
2022/07/22 15:43:42;;;;;;;8.18;2.58;;;;;;;;;;5062272;28;20041;-75
2022/07/22 15:46:27;;;;;;;6.50;2.50;;;;;;;;;;5055221;28;20041;-76
2022/07/22 15:49:13;;;;;;;4.35;2.38;;;;;;;;;;5046946;28;20037;-75
2022/07/22 15:51:59;;;;;;;3.38;2.30;;;;;;;;;;5055573;28;20041;-75
2022/07/22 15:54:46;;;;;;;5.03;2.15;;;;;;;;;;5062272;28;20053;-75
2022/07/22 16:00:35;;;;;;;4.30;2.45;;;;;;;;;;5055138;28;20040;-75
2022/07/22 16:03:21;;;;;;;3.55;2.30;;;;;;;;;;5056251;28;20049;-75
2022/07/22 16:06:06;;;;;;;10.02;2.45;;;;;;;;;;5054954;28;20041;-79
2022/07/22 16:08:52;;;;;;;6.60;2.30;;;;;;;;;;5055631;28;20060;-75
2022/07/22 16:11:37;;;;;;;3.33;2.20;;;;;;;;;;5055462;28;20045;-76
2022/07/22 16:14:23;;;;;;;4.25;2.50;;;;;;;;;;5039778;28;20397;-77
2022/07/22 16:17:09;;;;;;;7.28;2.20;;;;;;;;;;5061757;28;20041;-77
2022/07/22 16:19:54;;;;;;;10.45;2.50;;;;;;;;;;5054883;28;20057;-76
2022/07/22 16:22:39;;;;;;;5.10;2.38;;;;;;;;;;5054850;28;20037;-76
2022/07/22 16:25:25;;;;;;;6.70;2.25;;;;;;;;;;5054030;28;20394;-76
2022/07/22 16:28:11;;;;;;;4.65;2.70;;;;;;;;;;5054535;28;20048;-75
2022/07/22 16:30:56;;;;;;;4.13;2.45;;;;;;;;;;5054743;28;20402;-75
2022/07/22 16:33:42;;;;;;;7.57;2.75;;;;;;;;;;5054765;28;20053;-76
2022/07/22 16:36:29;;;;;;;5.70;2.50;;;;;;;;;;5054221;28;20053;-76
2022/07/22 16:39:14;;;;;;;7.63;2.63;;;;;;;;;;5054245;28;20386;-76
2022/07/22 16:42:00;;;;;;;6.30;2.40;;;;;;;;;;5053977;28;20037;-76
2022/07/22 16:44:45;;;;;;;7.80;2.40;;;;;;;;;;5054247;28;20045;-76
2022/07/22 16:47:31;;;;;;;6.05;2.72;;;;;;;;;;5061676;28;20045;-77
2022/07/22 16:50:16;;;;;;;11.57;2.50;;;;;;;;;;5064294;28;20474;-78
2022/07/22 16:53:02;;;;;;;10.48;2.50;;;;;;;;;;5055663;28;20048;-78